createdAt,value
2019-06-08T00:00:13.053Z,12.23
2019-06-08T00:02:44.004Z,11.13
2019-06-08T00:05:16.753Z,11.57
2019-06-08T00:07:47.669Z,11.63
2019-06-08T00:10:23.553Z,12.57
2019-06-08T00:12:52.038Z,11.30
2019-06-08T00:15:22.808Z,12.13
2019-06-08T00:17:53.708Z,12.17
2019-06-08T00:20:26.257Z,11.43
2019-06-08T00:22:57.051Z,12.00
2019-06-08T00:25:27.672Z,11.83
2019-06-08T00:27:58.511Z,12.10
2019-06-08T00:30:30.659Z,12.40
2019-06-08T00:33:01.332Z,11.70
2019-06-08T00:35:32.088Z,11.90
2019-06-08T00:38:03.040Z,11.30
2019-06-08T00:40:34.007Z,11.93
2019-06-08T00:43:04.708Z,12.10
2019-06-08T00:45:35.617Z,13.20
2019-06-08T00:48:06.386Z,11.67
2019-06-08T00:50:37.222Z,12.30
2019-06-08T00:53:08.696Z,11.27
2019-06-08T00:55:39.591Z,12.70
2019-06-08T00:58:10.346Z,12.70
2019-06-08T01:00:42.235Z,12.20
2019-06-08T01:03:12.987Z,11.67
2019-06-08T01:05:45.068Z,12.43
2019-06-08T01:08:15.980Z,12.93
2019-06-08T01:10:47.115Z,13.03
2019-06-08T01:13:18.878Z,12.17
2019-06-08T01:15:50.366Z,12.27
2019-06-08T01:18:22.543Z,12.70
2019-06-08T01:20:53.539Z,12.07
2019-06-08T01:23:25.500Z,12.60
2019-06-08T01:25:57.442Z,11.97
2019-06-08T01:28:28.286Z,12.10
2019-06-08T01:30:59.229Z,11.87
2019-06-08T01:33:30.848Z,11.53
2019-06-08T01:36:01.708Z,11.67
2019-06-08T01:38:32.343Z,12.50
2019-06-08T01:41:02.979Z,12.33
2019-06-08T01:43:33.777Z,11.77
2019-06-08T01:46:04.719Z,12.50
2019-06-08T01:48:35.618Z,11.70
2019-06-08T01:51:06.492Z,11.80
2019-06-08T01:53:37.309Z,12.33
2019-06-08T01:56:08.459Z,11.97
2019-06-08T01:58:39.026Z,11.93
2019-06-08T02:01:11.523Z,11.90
2019-06-08T02:03:42.352Z,12.23
2019-06-08T02:06:13.263Z,11.00
2019-06-08T02:08:44.201Z,11.87
2019-06-08T02:11:14.945Z,12.00
2019-06-08T02:13:45.594Z,12.23
2019-06-08T02:16:16.271Z,12.33
2019-06-08T02:18:51.100Z,12.03
2019-06-08T02:21:19.811Z,12.77
2019-06-08T02:23:50.487Z,12.50
2019-06-08T02:26:21.433Z,11.57
2019-06-08T02:28:52.430Z,11.77
2019-06-08T02:31:23.449Z,13.20
2019-06-08T02:33:54.167Z,12.73
2019-06-08T02:36:25.306Z,12.30
2019-06-08T02:38:56.059Z,11.80
2019-06-08T02:41:28.849Z,11.83
2019-06-08T02:43:59.710Z,12.10
2019-06-08T02:46:31.000Z,12.10
2019-06-08T02:49:04.865Z,13.00
2019-06-08T02:51:37.921Z,11.40
2019-06-08T02:54:08.802Z,11.53
2019-06-08T02:56:42.301Z,10.37
2019-06-08T02:59:15.477Z,11.30
2019-06-08T03:01:48.936Z,11.43
2019-06-08T03:04:22.239Z,11.20
2019-06-08T03:06:53.260Z,11.00
2019-06-08T03:09:27.115Z,12.27
2019-06-08T03:11:58.382Z,9.70
2019-06-08T03:14:31.179Z,11.00
2019-06-08T03:17:02.363Z,10.00
2019-06-08T03:19:33.475Z,9.87
2019-06-08T03:22:04.441Z,10.77
2019-06-08T03:24:36.565Z,9.20
2019-06-08T03:27:07.562Z,8.73
2019-06-08T03:29:39.124Z,9.33
2019-06-08T03:32:11.240Z,8.30
2019-06-08T03:34:51.175Z,8.90
2019-06-08T03:37:14.448Z,9.13
2019-06-08T03:39:45.451Z,8.23
2019-06-08T03:42:16.270Z,8.93
2019-06-08T03:44:47.261Z,8.90
2019-06-08T03:47:18.030Z,8.40
2019-06-08T03:49:56.758Z,8.37
2019-06-08T03:52:21.251Z,8.40
2019-06-08T03:54:52.272Z,8.60
2019-06-08T03:57:23.375Z,8.67
2019-06-08T03:59:54.002Z,7.90
2019-06-08T04:02:24.820Z,8.67
2019-06-08T04:04:55.409Z,7.70
2019-06-08T04:07:26.162Z,8.10
2019-06-08T04:09:56.827Z,7.63
2019-06-08T04:12:27.282Z,7.80
2019-06-08T04:14:57.791Z,7.63
2019-06-08T04:17:28.144Z,7.67
2019-06-08T04:20:10.381Z,7.70
2019-06-08T04:22:30.694Z,7.50
2019-06-08T04:25:02.775Z,7.70
2019-06-08T04:27:33.516Z,7.30
2019-06-08T04:30:04.588Z,7.60
2019-06-08T04:32:35.375Z,7.10
2019-06-08T04:35:06.403Z,7.80
2019-06-08T04:37:40.290Z,7.30
2019-06-08T04:40:11.468Z,7.00
2019-06-08T04:42:44.392Z,7.80
2019-06-08T04:45:15.403Z,8.17
2019-06-08T04:47:47.770Z,7.00
2019-06-08T04:50:23.344Z,7.67
2019-06-08T04:52:51.891Z,7.43
2019-06-08T04:55:22.517Z,7.73
2019-06-08T04:57:53.152Z,8.20
2019-06-08T05:00:23.850Z,7.10
2019-06-08T05:02:55.861Z,6.57
2019-06-08T05:05:27.897Z,7.10
2019-06-08T05:07:58.656Z,7.70
2019-06-08T05:10:29.315Z,8.03
2019-06-08T05:13:00.223Z,7.30
2019-06-08T05:15:31.186Z,7.57
2019-06-08T05:18:01.909Z,8.13
2019-06-08T05:20:38.892Z,7.87
2019-06-08T05:23:07.977Z,7.27
2019-06-08T05:25:39.129Z,6.83
2019-06-08T05:28:10.057Z,7.27
2019-06-08T05:30:41.259Z,7.10
2019-06-08T05:33:11.920Z,7.00
2019-06-08T05:35:43.448Z,7.80
2019-06-08T05:38:14.287Z,7.63
2019-06-08T05:40:45.617Z,6.87
2019-06-08T05:43:16.552Z,6.72
2019-06-08T05:45:48.388Z,7.25
2019-06-08T05:48:19.274Z,6.40
2019-06-08T05:51:03.031Z,6.60
2019-06-08T05:53:23.225Z,6.87
2019-06-08T05:55:54.383Z,6.95
2019-06-08T05:58:25.577Z,5.90
2019-06-08T06:00:56.313Z,6.12
2019-06-08T06:03:28.345Z,6.03
2019-06-08T06:05:59.070Z,10.95
2019-06-08T06:08:30.450Z,11.57
2019-06-08T06:11:01.471Z,9.78
2019-06-08T06:13:31.867Z,9.93
2019-06-08T06:16:02.201Z,12.20
2019-06-08T06:18:32.890Z,13.70
2019-06-08T06:21:10.909Z,15.13
2019-06-08T06:23:36.107Z,12.85
2019-06-08T06:26:06.918Z,14.85
2019-06-08T06:28:37.588Z,13.98
2019-06-08T06:31:08.458Z,12.55
2019-06-08T06:33:41.835Z,13.38
2019-06-08T06:36:13.056Z,13.62
2019-06-08T06:38:45.927Z,12.73
2019-06-08T06:41:16.722Z,12.70
2019-06-08T06:43:48.089Z,13.40
2019-06-08T06:46:19.043Z,13.50
2019-06-08T06:48:50.398Z,13.95
2019-06-08T06:51:26.219Z,14.38
2019-06-08T06:53:53.876Z,14.38
2019-06-08T06:56:25.229Z,13.15
2019-06-08T06:58:56.013Z,12.18
2019-06-08T07:01:26.966Z,11.43
2019-06-08T07:03:59.255Z,13.10
2019-06-08T07:06:30.130Z,12.58
2019-06-08T07:09:00.956Z,12.00
2019-06-08T07:11:31.717Z,10.72
2019-06-08T07:14:02.559Z,11.38
2019-06-08T07:16:33.332Z,11.25
2019-06-08T07:19:03.921Z,11.80
2019-06-08T07:21:41.813Z,8.50
2019-06-08T07:24:07.049Z,8.28
2019-06-08T07:26:37.774Z,8.00
2019-06-08T07:29:08.635Z,7.90
2019-06-08T07:31:39.379Z,8.13
2019-06-08T07:34:11.791Z,7.40
2019-06-08T07:36:43.016Z,7.50
2019-06-08T07:39:13.757Z,7.37
2019-06-08T07:41:45.203Z,7.83
2019-06-08T07:44:15.783Z,8.40
2019-06-08T07:46:46.964Z,8.60
2019-06-08T07:49:19.153Z,8.60
2019-06-08T07:52:02.441Z,8.98
2019-06-08T07:54:22.413Z,9.08
2019-06-08T07:56:53.259Z,9.08
2019-06-08T07:59:24.058Z,11.03
2019-06-08T08:01:58.358Z,10.18
2019-06-08T08:04:29.296Z,12.03
2019-06-08T08:06:59.860Z,11.80
2019-06-08T08:09:32.120Z,12.70
2019-06-08T08:12:02.871Z,11.77
2019-06-08T08:14:33.827Z,12.53
2019-06-08T08:17:05.237Z,16.37
2019-06-08T08:19:35.889Z,14.70
2019-06-08T08:22:22.334Z,17.27
2019-06-08T08:24:39.467Z,18.50
2019-06-08T08:27:10.372Z,18.90
2019-06-08T08:29:41.083Z,15.97
2019-06-08T08:32:12.910Z,16.27
2019-06-08T08:34:43.890Z,15.40
2019-06-08T08:37:14.661Z,12.67
2019-06-08T08:39:47.371Z,12.60
2019-06-08T08:42:18.173Z,12.90
2019-06-08T08:44:51.027Z,11.97
2019-06-08T08:47:21.526Z,11.33
2019-06-08T08:49:52.245Z,12.37
2019-06-08T08:52:34.480Z,11.47
2019-06-08T08:54:59.286Z,11.20
2019-06-08T08:57:29.208Z,12.10
2019-06-08T09:00:03.175Z,11.13
2019-06-08T09:02:32.630Z,11.50
2019-06-08T09:05:04.148Z,11.43
2019-06-08T09:07:35.190Z,10.73
2019-06-08T09:10:08.579Z,12.00
2019-06-08T09:12:39.658Z,10.90
2019-06-08T09:15:11.284Z,10.37
2019-06-08T09:17:48.950Z,11.30
2019-06-08T09:20:19.917Z,10.87
2019-06-08T09:22:59.081Z,10.93
2019-06-08T09:25:23.157Z,11.00
2019-06-08T09:27:57.185Z,10.10
2019-06-08T09:30:28.743Z,11.20
2019-06-08T09:33:01.941Z,11.17
2019-06-08T09:35:31.688Z,11.03
2019-06-08T09:38:04.870Z,11.70
2019-06-08T09:40:35.309Z,10.50
2019-06-08T09:43:12.464Z,10.50
2019-06-08T09:45:38.531Z,10.90
2019-06-08T09:48:09.468Z,10.73
2019-06-08T09:50:40.782Z,10.40
2019-06-08T09:53:23.899Z,9.83
2019-06-08T09:55:44.203Z,10.93
2019-06-08T09:58:15.057Z,10.27
2019-06-08T10:00:45.823Z,10.83
2019-06-08T10:03:18.912Z,9.90
2019-06-08T10:05:49.843Z,9.60
2019-06-08T10:08:20.998Z,9.30
2019-06-08T10:10:52.030Z,10.30
2019-06-08T10:13:22.648Z,10.30
2019-06-08T10:15:54.945Z,9.87
2019-06-08T10:18:28.358Z,9.73
2019-06-08T10:21:01.219Z,10.83
2019-06-08T10:23:34.382Z,10.00
2019-06-08T10:26:05.258Z,10.33
2019-06-08T10:28:38.996Z,10.20
2019-06-08T10:31:10.225Z,10.33
2019-06-08T10:33:41.195Z,10.00
2019-06-08T10:36:12.866Z,10.70
2019-06-08T10:38:44.247Z,10.67
2019-06-08T10:41:21.360Z,10.10
2019-06-08T10:43:49.298Z,10.50
2019-06-08T10:46:20.844Z,9.90
2019-06-08T10:48:52.082Z,10.57
2019-06-08T10:51:22.853Z,10.43
2019-06-08T10:53:53.915Z,9.90
2019-06-08T10:56:30.854Z,10.20
2019-06-08T10:59:01.601Z,10.33
2019-06-08T11:01:31.444Z,11.13
2019-06-08T11:04:03.302Z,10.60
2019-06-08T11:06:34.732Z,10.60
2019-06-08T11:09:12.262Z,11.47
2019-06-08T11:11:39.019Z,11.30
2019-06-08T11:14:12.851Z,10.17
2019-06-08T11:16:42.445Z,11.00
2019-06-08T11:19:14.204Z,12.00
2019-06-08T11:21:44.898Z,11.40
2019-06-08T11:24:23.816Z,12.17
2019-06-08T11:26:48.073Z,13.60
2019-06-08T11:29:19.317Z,12.10
2019-06-08T11:31:50.943Z,12.73
2019-06-08T11:34:22.284Z,14.23
2019-06-08T11:36:52.862Z,14.13
2019-06-08T11:39:23.662Z,14.80
2019-06-08T11:41:54.829Z,14.80
2019-06-08T11:44:27.422Z,14.10
2019-06-08T11:46:58.168Z,14.50
2019-06-08T11:49:29.268Z,14.60
2019-06-08T11:52:00.510Z,14.23
2019-06-08T11:54:37.009Z,15.57
2019-06-08T11:57:04.902Z,14.50
2019-06-08T11:59:37.468Z,13.40
2019-06-08T12:02:11.125Z,12.70
2019-06-08T12:04:40.851Z,13.40
2019-06-08T12:07:12.746Z,13.60
2019-06-08T12:09:45.178Z,13.50
2019-06-08T12:12:20.426Z,12.73
2019-06-08T12:14:48.213Z,14.03
2019-06-08T12:17:22.308Z,13.10
2019-06-08T12:19:51.382Z,12.17
2019-06-08T12:22:22.333Z,12.20
2019-06-08T12:24:53.352Z,11.37
2019-06-08T12:27:33.550Z,11.07
2019-06-08T12:29:58.764Z,11.63
2019-06-08T12:32:28.910Z,10.97
2019-06-08T12:35:00.219Z,11.20
2019-06-08T12:37:30.958Z,10.73
2019-06-08T12:40:01.707Z,10.23
2019-06-08T12:42:32.704Z,10.57
2019-06-08T12:45:03.636Z,10.90
2019-06-08T12:47:34.428Z,10.67
2019-06-08T12:50:08.229Z,11.20
2019-06-08T12:52:39.188Z,10.77
2019-06-08T12:55:14.290Z,9.97
2019-06-08T12:57:43.378Z,11.03
2019-06-08T13:00:15.567Z,10.60
2019-06-08T13:02:50.743Z,10.93
2019-06-08T13:05:23.017Z,11.27
2019-06-08T13:07:54.098Z,11.50
2019-06-08T13:10:27.746Z,11.80
2019-06-08T13:12:58.895Z,11.40
2019-06-08T13:15:30.921Z,11.27
2019-06-08T13:18:01.823Z,11.00
2019-06-08T13:20:32.537Z,12.00
2019-06-08T13:23:03.251Z,10.80
2019-06-08T13:25:40.153Z,11.77
2019-06-08T13:28:12.237Z,12.43
2019-06-08T13:30:39.148Z,11.63
2019-06-08T13:33:10.018Z,11.37
2019-06-08T13:35:41.428Z,12.80
2019-06-08T13:38:12.660Z,13.60
2019-06-08T13:40:43.640Z,13.90
2019-06-08T13:43:15.333Z,14.73
2019-06-08T13:45:48.593Z,15.90
2019-06-08T13:48:21.667Z,17.10
2019-06-08T13:50:52.425Z,16.87
2019-06-08T13:53:28.412Z,15.87
2019-06-08T13:55:56.941Z,15.20
2019-06-08T13:58:33.255Z,14.70
2019-06-08T14:01:00.356Z,15.37
2019-06-08T14:03:31.805Z,16.00
2019-06-08T14:06:02.640Z,13.57
2019-06-08T14:08:33.419Z,15.63
2019-06-08T14:11:05.495Z,14.33
2019-06-08T14:13:38.031Z,14.47
2019-06-08T14:16:11.569Z,12.60
2019-06-08T14:18:42.463Z,14.10
2019-06-08T14:21:13.034Z,13.70
2019-06-08T14:23:43.751Z,14.70
2019-06-08T14:26:15.159Z,15.30
2019-06-08T14:28:46.753Z,14.47
2019-06-08T14:31:19.747Z,14.40
2019-06-08T14:33:50.478Z,13.87
2019-06-08T14:36:22.848Z,14.40
2019-06-08T14:38:54.202Z,14.03
2019-06-08T14:41:25.036Z,12.97
2019-06-08T14:43:55.726Z,14.00
2019-06-08T14:46:28.624Z,13.10
2019-06-08T14:49:00.267Z,13.30
2019-06-08T14:51:49.174Z,13.03
2019-06-08T14:54:25.136Z,12.53
2019-06-08T14:56:57.771Z,12.63
2019-06-08T14:59:30.387Z,12.33
2019-06-08T15:02:01.162Z,13.10
2019-06-08T15:04:36.258Z,23.60
2019-06-08T15:07:04.532Z,16.00
2019-06-08T15:09:37.583Z,28.37
2019-06-08T15:12:11.420Z,14.50
2019-06-08T15:14:43.345Z,14.30
2019-06-08T15:17:14.036Z,15.30
2019-06-08T15:19:44.845Z,12.60
2019-06-08T15:22:15.783Z,12.80
2019-06-08T15:24:47.888Z,13.87
2019-06-08T15:27:21.607Z,14.77
2019-06-08T15:29:52.036Z,13.60
2019-06-08T15:32:23.435Z,13.03
2019-06-08T15:34:54.128Z,14.43
2019-06-08T15:37:25.167Z,13.97
2019-06-08T15:39:58.421Z,11.47
2019-06-08T15:42:30.736Z,9.80
2019-06-08T15:45:01.590Z,10.03
2019-06-08T15:47:32.635Z,11.00
2019-06-08T15:50:03.234Z,12.37
2019-06-08T15:52:34.345Z,12.97
2019-06-08T15:55:05.356Z,12.97
2019-06-08T15:57:40.883Z,13.80
2019-06-08T16:00:10.446Z,13.10
2019-06-08T16:02:41.056Z,14.00
2019-06-08T16:05:12.669Z,13.10
2019-06-08T16:07:43.816Z,9.50
2019-06-08T16:10:15.399Z,12.90
2019-06-08T16:12:47.081Z,11.90
2019-06-08T16:15:18.895Z,13.80
2019-06-08T16:17:49.826Z,22.23
2019-06-08T16:20:20.857Z,18.77
2019-06-08T16:22:51.522Z,17.43
2019-06-08T16:25:25.471Z,16.43
2019-06-08T16:27:56.419Z,17.77
2019-06-08T16:30:27.234Z,19.10
2019-06-08T16:32:58.092Z,17.97
2019-06-08T16:35:31.516Z,17.80
2019-06-08T16:38:02.976Z,19.50
2019-06-08T16:40:36.344Z,17.27
2019-06-08T16:43:08.780Z,16.40
2019-06-08T16:45:41.155Z,16.10
2019-06-08T16:48:11.956Z,15.67
2019-06-08T16:50:42.631Z,17.03
2019-06-08T16:53:13.318Z,17.10
2019-06-08T16:55:45.428Z,18.63
2019-06-08T16:58:16.261Z,20.97
2019-06-08T17:00:47.620Z,21.20
2019-06-08T17:03:18.459Z,20.53
2019-06-08T17:05:49.080Z,19.50
2019-06-08T17:08:20.034Z,20.03
2019-06-08T17:10:51.138Z,19.87
2019-06-08T17:13:22.863Z,19.97
2019-06-08T17:15:55.156Z,19.70
2019-06-08T17:18:25.992Z,18.53
2019-06-08T17:20:56.617Z,18.20
2019-06-08T17:23:27.571Z,19.53
2019-06-08T17:25:58.471Z,21.80
2019-06-08T17:28:42.155Z,22.10
2019-06-08T17:31:13.828Z,17.50
2019-06-08T17:33:44.538Z,12.70
2019-06-08T17:36:15.403Z,11.40
2019-06-08T17:38:46.174Z,11.80
2019-06-08T17:41:17.154Z,11.97
2019-06-08T17:43:47.863Z,11.40
2019-06-08T17:46:18.665Z,11.50
2019-06-08T18:47:28.669Z,16.93
2019-06-08T18:50:18.481Z,17.20
2019-06-08T18:53:02.324Z,16.77
2019-06-08T18:55:50.676Z,17.00
2019-06-08T18:58:24.928Z,17.03
2019-06-08T19:01:14.072Z,16.17
2019-06-08T19:03:52.321Z,18.40
2019-06-08T19:06:27.892Z,17.77
2019-06-08T19:09:02.469Z,17.30
2019-06-08T19:11:37.655Z,16.53
2019-06-08T19:14:11.519Z,16.67
2019-06-08T19:17:07.526Z,19.03
2019-06-08T19:19:58.062Z,17.97
2019-06-08T19:22:38.449Z,18.23
2019-06-08T19:25:10.363Z,17.00
2019-06-08T19:27:48.111Z,17.47
2019-06-08T19:30:29.328Z,18.47
2019-06-08T19:33:03.231Z,17.93
2019-06-08T19:35:38.823Z,15.80
2019-06-08T19:38:11.424Z,16.13
2019-06-08T19:40:44.142Z,16.17
2019-06-08T19:43:18.605Z,17.30
2019-06-08T19:45:53.464Z,17.77
2019-06-08T19:48:31.417Z,16.00
2019-06-08T19:51:04.699Z,19.33
2019-06-08T19:53:38.427Z,19.40
2019-06-08T19:56:10.020Z,16.43
2019-06-08T19:58:54.914Z,17.77
2019-06-08T20:01:13.477Z,18.13
2019-06-08T20:03:44.799Z,18.20
2019-06-08T20:06:17.544Z,20.03
2019-06-08T20:08:51.659Z,16.30
2019-06-08T20:11:22.770Z,16.20
2019-06-08T20:13:54.557Z,15.47
2019-06-08T20:16:27.834Z,16.33
2019-06-08T20:18:58.663Z,16.63
2019-06-08T20:21:29.531Z,15.70
2019-06-08T20:24:00.296Z,15.90
2019-06-08T20:26:31.067Z,15.57
2019-06-08T20:29:12.152Z,15.17
2019-06-08T20:31:41.373Z,17.60
2019-06-08T20:34:12.995Z,16.50
2019-06-08T20:36:45.131Z,16.53
2019-06-08T20:39:18.151Z,16.70
2019-06-08T20:41:51.521Z,15.83
2019-06-08T20:44:30.230Z,16.20
2019-06-08T20:47:01.729Z,16.67
2019-06-08T20:49:32.440Z,16.50
2019-06-08T20:52:19.808Z,16.57
2019-06-08T20:54:53.511Z,15.00
2019-06-08T20:57:26.122Z,16.27
2019-06-08T20:59:58.060Z,15.30
2019-06-08T21:02:30.619Z,16.97
2019-06-08T21:05:01.229Z,17.17
2019-06-08T21:07:32.865Z,16.03
2019-06-08T21:10:04.335Z,16.97
2019-06-08T21:12:37.750Z,15.70
2019-06-08T21:15:08.011Z,15.40
2019-06-08T21:17:38.820Z,16.27
2019-06-08T21:20:10.337Z,16.30
2019-06-08T21:22:50.945Z,16.77
2019-06-08T21:25:19.504Z,16.07
2019-06-08T21:27:51.437Z,15.60
2019-06-08T21:30:28.442Z,15.87
2019-06-08T21:33:02.038Z,17.83
2019-06-08T21:35:32.831Z,17.17
2019-06-08T21:38:03.354Z,16.17
2019-06-08T21:40:49.569Z,16.50
2019-06-08T21:43:21.565Z,17.00
2019-06-08T21:45:53.620Z,15.60
2019-06-08T21:48:34.683Z,17.40
2019-06-08T21:51:11.236Z,15.83
2019-06-08T21:54:02.981Z,16.40
2019-06-08T21:56:36.928Z,16.97
2019-06-08T21:59:23.214Z,18.77
2019-06-08T22:01:59.120Z,16.73
2019-06-08T22:04:27.758Z,17.50
2019-06-08T22:07:01.357Z,16.90
2019-06-08T22:09:31.913Z,16.37
2019-06-08T22:12:03.330Z,16.80
2019-06-08T22:14:47.307Z,18.40
2019-06-08T22:17:19.622Z,17.60
2019-06-08T22:19:51.507Z,17.37
2019-06-08T22:22:22.253Z,16.33
2019-06-08T22:24:53.432Z,16.63
2019-06-08T22:27:24.056Z,16.23
2019-06-08T22:29:56.248Z,16.90
2019-06-08T22:32:27.971Z,18.67
2019-06-08T22:35:00.216Z,17.30
2019-06-08T22:37:31.348Z,16.73
2019-06-08T22:40:03.625Z,18.20
2019-06-08T22:42:37.259Z,18.60
2019-06-08T22:45:08.346Z,18.50
2019-06-08T22:47:39.246Z,18.00
2019-06-08T22:50:10.314Z,18.97
2019-06-08T22:52:40.940Z,19.67
2019-06-08T22:55:11.775Z,19.03
2019-06-08T22:57:42.440Z,17.90
2019-06-08T23:00:17.474Z,18.87
2019-06-08T23:02:45.793Z,18.67
2019-06-08T23:05:18.586Z,17.50
2019-06-08T23:07:49.321Z,18.23
2019-06-08T23:10:20.070Z,17.70
2019-06-08T23:12:50.505Z,16.80
2019-06-08T23:15:21.374Z,16.80
2019-06-08T23:17:52.071Z,15.23
2019-06-08T23:20:22.774Z,15.57
2019-06-08T23:22:54.084Z,18.87
2019-06-08T23:25:27.949Z,16.90
2019-06-08T23:27:58.488Z,17.03
2019-06-08T23:30:29.217Z,17.13
2019-06-08T23:33:02.676Z,18.40
2019-06-08T23:35:56.703Z,17.77
2019-06-08T23:38:08.095Z,18.57
2019-06-08T23:40:39.514Z,17.20
2019-06-08T23:43:10.305Z,17.87
2019-06-08T23:45:41.099Z,16.33
2019-06-08T23:48:12.349Z,17.40
2019-06-08T23:50:43.099Z,17.60
2019-06-08T23:53:14.021Z,17.00
2019-06-08T23:55:45.067Z,18.17
2019-06-08T23:58:17.572Z,18.30
